Time;durP1;ratioP1;P1;durP2;ratioP2;P2;SDS_P1;SDS_P2;PMS_P1;PMS_P2;Temp;Humidity;BMP_temperature;BMP_pressure;BME280_temperature;BME280_humidity;BME280_pressure;Samples;Min_cycle;Max_cycle;Signal;HPM_P1;HPM_P2
2021/03/26 00:02:08;;;;;;;;;35.33;34.00;;;;;;;;5081972;28;12276;-79
2021/03/26 00:04:36;;;;;;;;;35.75;32.75;;;;;;;;5079644;28;11723;-79
2021/03/26 00:07:03;;;;;;;;;33.00;33.00;;;;;;;;5082966;28;11571;-78
2021/03/26 00:09:34;;;;;;;;;39.33;36.33;;;;;;;;5084098;28;11635;-77
2021/03/26 00:12:05;;;;;;;;;37.67;34.00;;;;;;;;5082470;28;11601;-77
2021/03/26 00:14:32;;;;;;;;;39.33;36.00;;;;;;;;5082651;28;12395;-79
2021/03/26 00:17:01;;;;;;;;;40.33;36.67;;;;;;;;5083637;28;11636;-78
2021/03/26 00:19:28;;;;;;;;;36.33;34.00;;;;;;;;5082325;28;11720;-79
2021/03/26 00:21:55;;;;;;;;;39.00;37.33;;;;;;;;5085088;28;11724;-79
2021/03/26 00:24:22;;;;;;;;;41.67;35.33;;;;;;;;5082731;28;11592;-78
2021/03/26 00:26:49;;;;;;;;;41.33;37.00;;;;;;;;5083680;28;11798;-79
2021/03/26 00:29:16;;;;;;;;;40.67;36.67;;;;;;;;5082361;28;11588;-78
2021/03/26 00:31:44;;;;;;;;;31.00;31.00;;;;;;;;5083598;28;12426;-78
2021/03/26 00:34:11;;;;;;;;;39.00;38.33;;;;;;;;5082115;28;11644;-80
2021/03/26 00:36:39;;;;;;;;;43.00;38.00;;;;;;;;5083038;28;11676;-78
2021/03/26 00:39:08;;;;;;;;;43.33;34.00;;;;;;;;5082893;28;8878;-82
2021/03/26 00:41:35;;;;;;;;;41.67;38.33;;;;;;;;5084130;28;12405;-78
2021/03/26 00:44:03;;;;;;;;;29.33;25.33;;;;;;;;5082682;28;11610;-79
2021/03/26 00:46:31;;;;;;;;;36.00;34.00;;;;;;;;5081076;28;11576;-79
2021/03/26 00:48:58;;;;;;;;;31.33;30.00;;;;;;;;5076542;28;11712;-79
2021/03/26 00:51:25;;;;;;;;;31.67;31.67;;;;;;;;5081331;28;12323;-78
2021/03/26 00:53:52;;;;;;;;;29.67;26.00;;;;;;;;5082651;28;11638;-78
2021/03/26 00:56:20;;;;;;;;;29.67;29.67;;;;;;;;5080788;28;12475;-77
2021/03/26 00:58:47;;;;;;;;;38.67;31.00;;;;;;;;5083215;28;11575;-79
2021/03/26 01:01:14;;;;;;;;;38.00;35.00;;;;;;;;5081353;28;11596;-78
2021/03/26 01:03:41;;;;;;;;;38.33;34.00;;;;;;;;5081016;28;12031;-79
2021/03/26 01:06:09;;;;;;;;;27.33;25.33;;;;;;;;5083326;28;11656;-80
2021/03/26 01:08:39;;;;;;;;;24.33;22.33;;;;;;;;5083450;28;12330;-80
2021/03/26 01:11:09;;;;;;;;;36.00;34.33;;;;;;;;5087135;28;11719;-80
2021/03/26 01:13:38;;;;;;;;;31.33;27.00;;;;;;;;5089139;28;11567;-78
2021/03/26 01:16:06;;;;;;;;;36.00;32.00;;;;;;;;5082179;28;11560;-80
2021/03/26 01:18:37;;;;;;;;;31.00;24.33;;;;;;;;5087340;28;8902;-79
2021/03/26 01:21:05;;;;;;;;;27.67;25.67;;;;;;;;5079070;28;11611;-80
2021/03/26 01:23:31;;;;;;;;;35.33;31.67;;;;;;;;5078156;28;11693;-80
2021/03/26 01:25:59;;;;;;;;;31.00;28.00;;;;;;;;5081528;28;11577;-80
2021/03/26 01:28:28;;;;;;;;;33.00;27.00;;;;;;;;5083082;28;11678;-79
2021/03/26 01:30:56;;;;;;;;;41.33;36.00;;;;;;;;5080450;28;11542;-80
2021/03/26 01:33:25;;;;;;;;;29.00;29.00;;;;;;;;5083225;28;8872;-78
2021/03/26 01:35:52;;;;;;;;;35.00;31.00;;;;;;;;5080651;28;11674;-77
2021/03/26 01:38:19;;;;;;;;;30.00;28.33;;;;;;;;5081608;28;8872;-79
2021/03/26 01:40:49;;;;;;;;;39.67;33.33;;;;;;;;5083147;28;8849;-78
2021/03/26 01:43:19;;;;;;;;;35.67;30.33;;;;;;;;5081753;28;8871;-78
2021/03/26 01:45:46;;;;;;;;;30.00;30.00;;;;;;;;5081076;28;11663;-79
2021/03/26 01:48:23;;;;;;;;;25.33;23.67;;;;;;;;5073856;28;11694;-79
2021/03/26 01:50:50;;;;;;;;;31.33;30.67;;;;;;;;5085978;28;11551;-78
2021/03/26 01:53:18;;;;;;;;;32.67;31.33;;;;;;;;5082322;28;11592;-77
2021/03/26 01:55:47;;;;;;;;;32.67;32.67;;;;;;;;5087018;28;8945;-75
2021/03/26 01:58:16;;;;;;;;;42.67;35.00;;;;;;;;5085265;28;8998;-75
2021/03/26 02:00:45;;;;;;;;;37.67;35.67;;;;;;;;5080840;28;8808;-77
2021/03/26 02:03:18;;;;;;;;;33.00;33.00;;;;;;;;5082074;28;9767;-77
2021/03/26 02:05:46;;;;;;;;;37.00;30.67;;;;;;;;5074516;28;8859;-77
2021/03/26 02:08:14;;;;;;;;;32.33;27.67;;;;;;;;5082387;28;9658;-76
2021/03/26 02:10:42;;;;;;;;;30.00;26.67;;;;;;;;5082718;28;8864;-76
2021/03/26 02:13:15;;;;;;;;;32.00;27.33;;;;;;;;5077433;28;8925;-79
2021/03/26 02:15:45;;;;;;;;;33.67;32.67;;;;;;;;5088671;28;8980;-79
2021/03/26 02:18:19;;;;;;;;;28.00;27.00;;;;;;;;5086119;28;8929;-80
2021/03/26 02:20:49;;;;;;;;;35.67;33.33;;;;;;;;5063153;28;10026;-76
2021/03/26 02:23:19;;;;;;;;;36.00;25.67;;;;;;;;5083391;28;11626;-76
2021/03/26 02:25:47;;;;;;;;;32.33;27.00;;;;;;;;5075202;28;8856;-77
2021/03/26 02:28:15;;;;;;;;;42.00;31.33;;;;;;;;5087266;28;8867;-74
2021/03/26 02:30:47;;;;;;;;;30.00;28.00;;;;;;;;5085656;28;8839;-76
2021/03/26 02:33:14;;;;;;;;;26.67;26.67;;;;;;;;5086036;28;8868;-75
2021/03/26 02:35:43;;;;;;;;;26.67;26.33;;;;;;;;5084813;28;8860;-75
2021/03/26 02:38:15;;;;;;;;;26.33;24.00;;;;;;;;5087597;28;8886;-77
2021/03/26 02:40:47;;;;;;;;;32.67;31.00;;;;;;;;5085733;28;8848;-77
2021/03/26 02:43:39;;;;;;;;;39.00;33.00;;;;;;;;5085012;28;8880;-78
2021/03/26 02:46:17;;;;;;;;;32.33;29.00;;;;;;;;5086136;28;8876;-76
2021/03/26 02:48:48;;;;;;;;;36.33;30.00;;;;;;;;5084103;28;9002;-76
2021/03/26 02:51:20;;;;;;;;;29.33;29.33;;;;;;;;5084666;28;8878;-77
2021/03/26 02:54:06;;;;;;;;;30.00;30.00;;;;;;;;5084747;28;8978;-79
2021/03/26 02:56:37;;;;;;;;;33.00;32.33;;;;;;;;5082320;28;8920;-77
2021/03/26 02:59:07;;;;;;;;;30.33;29.33;;;;;;;;5086131;28;9037;-77
2021/03/26 03:01:37;;;;;;;;;28.33;22.67;;;;;;;;5082550;28;9767;-77
2021/03/26 03:04:08;;;;;;;;;25.67;24.33;;;;;;;;5083914;28;8856;-77
2021/03/26 03:06:38;;;;;;;;;35.33;30.00;;;;;;;;5085224;28;9000;-77
2021/03/26 03:09:08;;;;;;;;;23.00;23.00;;;;;;;;5084641;28;8964;-76
2021/03/26 03:11:40;;;;;;;;;39.33;32.33;;;;;;;;5083603;28;8856;-76
2021/03/26 03:14:13;;;;;;;;;30.33;26.00;;;;;;;;5081209;28;8891;-77
2021/03/26 03:16:46;;;;;;;;;27.67;27.67;;;;;;;;5084780;28;8856;-77
2021/03/26 03:19:18;;;;;;;;;31.33;30.33;;;;;;;;5083973;28;8864;-80
2021/03/26 03:21:50;;;;;;;;;32.33;28.67;;;;;;;;5080536;28;8892;-79
2021/03/26 03:24:21;;;;;;;;;30.33;30.33;;;;;;;;5084213;28;8963;-79
2021/03/26 03:26:54;;;;;;;;;32.00;29.00;;;;;;;;5066723;28;8891;-78
2021/03/26 03:29:28;;;;;;;;;21.67;17.00;;;;;;;;5084131;28;8836;-76
2021/03/26 03:32:00;;;;;;;;;29.00;29.00;;;;;;;;5083426;28;9724;-77
2021/03/26 03:34:32;;;;;;;;;34.00;29.67;;;;;;;;5084605;28;8868;-77
2021/03/26 03:37:09;;;;;;;;;30.33;26.00;;;;;;;;5082515;28;8998;-77
2021/03/26 03:39:41;;;;;;;;;29.00;22.67;;;;;;;;5084306;28;9014;-77
2021/03/26 03:42:17;;;;;;;;;22.33;21.00;;;;;;;;5082014;28;9006;-77
2021/03/26 03:44:48;;;;;;;;;33.00;30.00;;;;;;;;5083715;28;8976;-78
2021/03/26 03:47:18;;;;;;;;;37.33;32.67;;;;;;;;5083200;28;8860;-78
2021/03/26 03:49:50;;;;;;;;;45.00;36.33;;;;;;;;5083105;28;9618;-77
2021/03/26 03:52:23;;;;;;;;;35.00;28.67;;;;;;;;5084721;28;8914;-79
2021/03/26 03:54:55;;;;;;;;;28.33;28.33;;;;;;;;5083965;28;8878;-79
2021/03/26 03:57:28;;;;;;;;;33.00;31.00;;;;;;;;5083564;28;8856;-79
2021/03/26 04:00:00;;;;;;;;;37.33;31.33;;;;;;;;5078592;28;9799;-78
2021/03/26 04:02:32;;;;;;;;;29.67;29.00;;;;;;;;5081658;28;9731;-78
2021/03/26 04:05:02;;;;;;;;;38.67;36.33;;;;;;;;5082180;28;8868;-79
2021/03/26 04:07:35;;;;;;;;;22.33;19.00;;;;;;;;5083154;28;8868;-79
2021/03/26 04:10:06;;;;;;;;;26.00;23.33;;;;;;;;5083562;28;9628;-75
2021/03/26 04:12:38;;;;;;;;;35.33;28.00;;;;;;;;5084037;28;8901;-75
2021/03/26 04:15:14;;;;;;;;;43.00;37.33;;;;;;;;5083407;28;8987;-76
2021/03/26 04:17:46;;;;;;;;;33.00;29.67;;;;;;;;5083987;28;8895;-76
2021/03/26 04:20:19;;;;;;;;;30.67;30.67;;;;;;;;5083039;28;11580;-75
2021/03/26 04:22:49;;;;;;;;;29.50;25.25;;;;;;;;5083934;28;11698;-77
2021/03/26 04:25:20;;;;;;;;;29.75;29.25;;;;;;;;5082802;28;11675;-76
2021/03/26 04:27:54;;;;;;;;;31.25;26.75;;;;;;;;5082961;28;11582;-75
2021/03/26 04:30:25;;;;;;;;;57.33;48.33;;;;;;;;5082792;28;11554;-76
2021/03/26 04:32:53;;;;;;;;;30.50;23.50;;;;;;;;5082466;28;11650;-77
2021/03/26 04:35:20;;;;;;;;;23.00;23.00;;;;;;;;5082758;28;11596;-76
2021/03/26 04:37:52;;;;;;;;;25.25;22.25;;;;;;;;5082396;28;11534;-77
2021/03/26 04:40:24;;;;;;;;;27.75;25.00;;;;;;;;5085824;28;11561;-77
2021/03/26 04:43:00;;;;;;;;;25.00;21.25;;;;;;;;5083187;28;11663;-77
2021/03/26 04:45:34;;;;;;;;;27.75;25.50;;;;;;;;5079752;28;11569;-79
2021/03/26 04:48:08;;;;;;;;;21.25;20.75;;;;;;;;5083511;28;11728;-79
2021/03/26 04:50:37;;;;;;;;;27.50;25.75;;;;;;;;5082527;28;11592;-77
2021/03/26 04:53:09;;;;;;;;;26.00;26.00;;;;;;;;5082807;28;11560;-77
2021/03/26 04:55:41;;;;;;;;;23.50;22.25;;;;;;;;5081469;28;11623;-77
2021/03/26 04:58:13;;;;;;;;;27.75;25.50;;;;;;;;5088356;28;11715;-77
2021/03/26 05:00:43;;;;;;;;;34.50;29.75;;;;;;;;5086293;27;11505;-76
2021/03/26 05:03:14;;;;;;;;;27.00;27.00;;;;;;;;5081410;28;11585;-77
2021/03/26 05:05:45;;;;;;;;;28.25;28.25;;;;;;;;5083455;28;11554;-76
2021/03/26 05:08:12;;;;;;;;;54.75;44.25;;;;;;;;5082467;28;11679;-77
2021/03/26 05:10:40;;;;;;;;;38.00;35.50;;;;;;;;5080502;28;11731;-77
2021/03/26 05:13:12;;;;;;;;;44.00;40.50;;;;;;;;5082755;28;11560;-79
2021/03/26 05:15:49;;;;;;;;;60.50;52.50;;;;;;;;5075657;28;11593;-78
2021/03/26 05:18:22;;;;;;;;;35.00;33.00;;;;;;;;5082802;28;11679;-81
2021/03/26 05:20:55;;;;;;;;;38.00;34.00;;;;;;;;5082710;28;11574;-84
2021/03/26 05:23:27;;;;;;;;;39.75;37.00;;;;;;;;5089165;28;11608;-79
2021/03/26 05:25:58;;;;;;;;;38.75;35.00;;;;;;;;5076588;28;11588;-80
2021/03/26 05:28:28;;;;;;;;;34.50;32.75;;;;;;;;5079816;28;11586;-78
2021/03/26 05:30:57;;;;;;;;;26.75;26.75;;;;;;;;5078505;28;11609;-77
2021/03/26 05:33:30;;;;;;;;;29.50;27.75;;;;;;;;5082631;28;11578;-79
2021/03/26 05:36:01;;;;;;;;;26.00;25.00;;;;;;;;5082719;28;11563;-76
2021/03/26 05:38:33;;;;;;;;;31.00;25.25;;;;;;;;5084918;28;11585;-78
2021/03/26 05:41:18;;;;;;;;;24.00;21.50;;;;;;;;5063803;28;12328;-77
2021/03/26 05:44:03;;;;;;;;;26.00;24.75;;;;;;;;5082231;28;11596;-76
2021/03/26 05:46:42;;;;;;;;;25.50;25.50;;;;;;;;5081932;28;11605;-77
2021/03/26 05:49:19;;;;;;;;;24.50;21.50;;;;;;;;5091883;28;11613;-78
2021/03/26 05:52:19;;;;;;;;;22.00;20.50;;;;;;;;5092974;28;11543;-77
2021/03/26 05:54:58;;;;;;;;;29.00;25.25;;;;;;;;5081348;28;11569;-77
2021/03/26 05:57:30;;;;;;;;;36.75;33.25;;;;;;;;5093882;28;11627;-76
2021/03/26 06:00:12;;;;;;;;;27.75;27.75;;;;;;;;5081581;28;11654;-76
2021/03/26 06:02:57;;;;;;;;;34.25;31.00;;;;;;;;5080840;28;11636;-76
2021/03/26 06:05:56;;;;;;;;;34.25;24.75;;;;;;;;5075799;28;11768;-77
2021/03/26 06:08:48;;;;;;;;;28.50;26.75;;;;;;;;5084750;28;11612;-79
2021/03/26 06:11:41;;;;;;;;;24.25;21.75;;;;;;;;5083253;28;11657;-79
2021/03/26 06:14:36;;;;;;;;;22.75;22.50;;;;;;;;5058777;28;11549;-77
2021/03/26 06:17:38;;;;;;;;;25.25;25.25;;;;;;;;5081130;28;11884;-78
2021/03/26 06:20:27;;;;;;;;;25.25;23.50;;;;;;;;5084999;28;12391;-77
2021/03/26 06:23:31;;;;;;;;;33.25;29.75;;;;;;;;5082321;28;11551;-75
2021/03/26 06:26:12;;;;;;;;;30.50;27.50;;;;;;;;5043368;28;11960;-76
2021/03/26 06:28:45;;;;;;;;;37.25;33.50;;;;;;;;5085483;28;11536;-78
2021/03/26 06:31:40;;;;;;;;;19.50;19.50;;;;;;;;5082457;28;11521;-78
2021/03/26 06:34:38;;;;;;;;;23.50;23.50;;;;;;;;5087612;28;11696;-74
2021/03/26 06:37:31;;;;;;;;;27.50;23.50;;;;;;;;5088223;28;11667;-76
2021/03/26 06:40:33;;;;;;;;;27.25;23.00;;;;;;;;5084079;28;11589;-76
2021/03/26 06:43:09;;;;;;;;;26.00;24.25;;;;;;;;5057894;28;12398;-75
2021/03/26 06:45:49;;;;;;;;;20.25;19.00;;;;;;;;5088655;28;11545;-77
2021/03/26 06:48:24;;;;;;;;;25.00;22.25;;;;;;;;5083716;28;11561;-78
2021/03/26 06:51:05;;;;;;;;;24.25;21.75;;;;;;;;5084177;28;11566;-68
2021/03/26 06:53:39;;;;;;;;;26.75;22.00;;;;;;;;5082887;28;11695;-68
2021/03/26 06:56:34;;;;;;;;;27.25;27.25;;;;;;;;5079938;28;12178;-69
2021/03/26 06:59:38;;;;;;;;;25.00;22.00;;;;;;;;5084948;28;11605;-67
2021/03/26 07:02:35;;;;;;;;;18.25;17.75;;;;;;;;5053610;28;11459;-67
2021/03/26 07:05:25;;;;;;;;;18.50;16.75;;;;;;;;5082920;28;11672;-69
2021/03/26 07:08:28;;;;;;;;;16.00;13.00;;;;;;;;5081913;28;11551;-68
2021/03/26 07:11:08;;;;;;;;;19.25;14.25;;;;;;;;5082601;28;11562;-68
2021/03/26 07:14:14;;;;;;;;;19.50;17.75;;;;;;;;5083433;28;11562;-70
2021/03/26 07:17:01;;;;;;;;;15.00;14.75;;;;;;;;5062631;28;11556;-69
2021/03/26 07:20:07;;;;;;;;;18.75;17.25;;;;;;;;5083149;28;12479;-69
2021/03/26 07:23:06;;;;;;;;;22.00;19.50;;;;;;;;5036561;28;11592;-68
2021/03/26 07:25:44;;;;;;;;;19.25;18.75;;;;;;;;5082764;28;11573;-68
2021/03/26 07:28:25;;;;;;;;;15.25;15.25;;;;;;;;5083491;28;11470;-69
2021/03/26 07:31:04;;;;;;;;;15.50;15.50;;;;;;;;5082977;28;11523;-68
2021/03/26 07:33:34;;;;;;;;;19.75;18.00;;;;;;;;5085640;28;11490;-67
2021/03/26 07:36:31;;;;;;;;;17.50;16.00;;;;;;;;5083572;28;12360;-69
2021/03/26 07:39:23;;;;;;;;;18.00;13.50;;;;;;;;5049332;28;11532;-69
2021/03/26 07:42:23;;;;;;;;;17.75;17.25;;;;;;;;5083049;28;12292;-70
2021/03/26 07:45:33;;;;;;;;;15.50;15.00;;;;;;;;5076291;28;11575;-67
2021/03/26 07:48:30;;;;;;;;;16.75;16.75;;;;;;;;5083144;28;11582;-70
2021/03/26 07:50:58;;;;;;;;;10.50;10.00;;;;;;;;5081964;28;11485;-68
2021/03/26 07:53:48;;;;;;;;;17.50;15.00;;;;;;;;5083352;28;11617;-69
2021/03/26 07:56:45;;;;;;;;;20.00;18.50;;;;;;;;5081597;28;12794;-68
2021/03/26 07:59:48;;;;;;;;;19.25;16.75;;;;;;;;5066007;28;11618;-69
2021/03/26 08:02:39;;;;;;;;;14.00;14.00;;;;;;;;5030605;28;11442;-69
2021/03/26 08:05:16;;;;;;;;;23.50;16.75;;;;;;;;5077477;28;11623;-69
2021/03/26 08:08:13;;;;;;;;;15.75;15.75;;;;;;;;5070881;28;12263;-71
2021/03/26 08:10:46;;;;;;;;;16.75;15.50;;;;;;;;5077370;28;11501;-69
2021/03/26 08:13:35;;;;;;;;;16.50;16.50;;;;;;;;5078626;28;11505;-70
2021/03/26 08:16:17;;;;;;;;;15.50;14.25;;;;;;;;5077267;28;11506;-69
2021/03/26 08:18:55;;;;;;;;;16.75;13.25;;;;;;;;5078712;28;12308;-70
2021/03/26 08:21:31;;;;;;;;;17.00;15.50;;;;;;;;5084072;28;11485;-69
2021/03/26 08:24:19;;;;;;;;;19.25;17.75;;;;;;;;5084017;28;11515;-69
2021/03/26 08:26:51;;;;;;;;;25.50;23.00;;;;;;;;5088657;28;11709;-69
2021/03/26 08:29:28;;;;;;;;;15.25;15.25;;;;;;;;5077814;28;11533;-69
2021/03/26 08:32:28;;;;;;;;;21.25;21.25;;;;;;;;5074826;28;11584;-70
2021/03/26 08:35:18;;;;;;;;;16.25;16.25;;;;;;;;5078410;28;11504;-70
2021/03/26 08:37:54;;;;;;;;;15.50;13.75;;;;;;;;5080037;28;11040;-70
2021/03/26 08:40:24;;;;;;;;;17.00;16.00;;;;;;;;5077338;28;10973;-69
2021/03/26 08:42:51;;;;;;;;;14.50;12.50;;;;;;;;5082109;28;10968;-70
2021/03/26 08:45:34;;;;;;;;;12.75;12.75;;;;;;;;5071036;28;11093;-70
2021/03/26 08:48:09;;;;;;;;;12.50;12.25;;;;;;;;5078432;28;10902;-72
2021/03/26 08:50:48;;;;;;;;;14.00;10.50;;;;;;;;5082664;28;10870;-72
2021/03/26 08:53:36;;;;;;;;;13.00;13.00;;;;;;;;5082698;28;10741;-73
2021/03/26 08:56:14;;;;;;;;;8.00;8.00;;;;;;;;5083158;28;10767;-68
2021/03/26 08:59:05;;;;;;;;;10.00;10.00;;;;;;;;5077504;28;10721;-69
2021/03/26 09:01:46;;;;;;;;;11.25;9.50;;;;;;;;5075552;28;10532;-69
2021/03/26 09:04:41;;;;;;;;;12.75;12.75;;;;;;;;5070835;28;10704;-68
2021/03/26 09:07:17;;;;;;;;;9.50;9.50;;;;;;;;5074660;28;11486;-68
2021/03/26 09:10:27;;;;;;;;;10.75;10.75;;;;;;;;5080356;28;10790;-70
2021/03/26 09:13:17;;;;;;;;;12.00;9.50;;;;;;;;5062997;28;10641;-71
2021/03/26 09:15:57;;;;;;;;;11.25;11.25;;;;;;;;5070653;28;10479;-69
2021/03/26 09:18:45;;;;;;;;;9.00;9.00;;;;;;;;5072039;28;10441;-70
2021/03/26 09:21:23;;;;;;;;;9.75;9.00;;;;;;;;5079052;28;10548;-69
2021/03/26 09:24:11;;;;;;;;;14.50;12.50;;;;;;;;5078342;28;11199;-70
2021/03/26 09:26:49;;;;;;;;;12.75;9.50;;;;;;;;5080165;28;10318;-69
2021/03/26 09:29:19;;;;;;;;;7.50;7.50;;;;;;;;5073086;28;10348;-70
2021/03/26 09:31:52;;;;;;;;;14.50;12.50;;;;;;;;5070116;28;10261;-70
2021/03/26 09:34:24;;;;;;;;;13.00;9.75;;;;;;;;5070862;28;10476;-69
2021/03/26 09:37:12;;;;;;;;;11.75;9.00;;;;;;;;5078798;28;10177;-70
2021/03/26 09:39:41;;;;;;;;;8.75;8.75;;;;;;;;5081324;28;10115;-70
2021/03/26 09:42:29;;;;;;;;;10.00;10.00;;;;;;;;5075080;28;10196;-70
2021/03/26 09:45:02;;;;;;;;;13.00;11.75;;;;;;;;5078692;28;10078;-70
2021/03/26 09:47:35;;;;;;;;;9.00;9.00;;;;;;;;5075869;28;10116;-71
2021/03/26 09:50:08;;;;;;;;;12.00;10.00;;;;;;;;5073713;28;10206;-70
2021/03/26 09:52:39;;;;;;;;;7.50;7.50;;;;;;;;5079569;28;10693;-70
2021/03/26 09:55:10;;;;;;;;;10.00;8.75;;;;;;;;5075116;28;10038;-71
2021/03/26 09:57:45;;;;;;;;;11.50;9.00;;;;;;;;5078810;28;9971;-70
2021/03/26 10:00:24;;;;;;;;;11.50;9.75;;;;;;;;5075028;28;10006;-71
2021/03/26 10:03:02;;;;;;;;;12.50;12.50;;;;;;;;5072432;28;9933;-70
2021/03/26 10:05:36;;;;;;;;;11.50;9.75;;;;;;;;5078291;28;9855;-69
2021/03/26 10:08:33;;;;;;;;;8.25;8.25;;;;;;;;5075149;28;9894;-69
2021/03/26 10:11:05;;;;;;;;;9.75;9.75;;;;;;;;5074008;28;10016;-69
2021/03/26 10:13:41;;;;;;;;;14.00;12.25;;;;;;;;5066499;28;10002;-69
2021/03/26 10:16:10;;;;;;;;;8.50;8.50;;;;;;;;5077472;28;10780;-69
2021/03/26 10:18:44;;;;;;;;;11.00;11.00;;;;;;;;5081598;28;9842;-69
2021/03/26 10:21:16;;;;;;;;;8.00;8.00;;;;;;;;5081564;28;9858;-69
2021/03/26 10:23:55;;;;;;;;;8.00;8.00;;;;;;;;5079366;28;10540;-69
2021/03/26 10:26:27;;;;;;;;;7.00;5.50;;;;;;;;5079291;28;9851;-69
2021/03/26 10:29:12;;;;;;;;;10.50;9.00;;;;;;;;5073461;28;11034;-68
2021/03/26 10:31:40;;;;;;;;;6.50;6.50;;;;;;;;5077472;28;9747;-69
2021/03/26 10:34:09;;;;;;;;;7.50;7.50;;;;;;;;5082437;28;10562;-68
2021/03/26 10:36:45;;;;;;;;;11.75;10.00;;;;;;;;5084973;28;9593;-69
2021/03/26 10:39:18;;;;;;;;;13.25;11.00;;;;;;;;5082348;28;9717;-68
2021/03/26 10:42:18;;;;;;;;;9.50;9.50;;;;;;;;5087160;28;9713;-70
2021/03/26 10:45:08;;;;;;;;;9.25;9.25;;;;;;;;5012835;28;9587;-69
2021/03/26 10:47:42;;;;;;;;;9.25;9.25;;;;;;;;5078840;28;9482;-69
2021/03/26 10:50:23;;;;;;;;;9.00;8.00;;;;;;;;5082533;28;9622;-70
2021/03/26 10:52:54;;;;;;;;;9.50;9.50;;;;;;;;5084659;28;9551;-69
2021/03/26 10:55:24;;;;;;;;;6.50;6.50;;;;;;;;5083368;28;9561;-70
2021/03/26 10:57:58;;;;;;;;;1.00;1.00;;;;;;;;5084890;28;9538;-70
2021/03/26 11:00:32;;;;;;;;;1.67;1.00;;;;;;;;5083865;28;9200;-70
2021/03/26 11:03:01;;;;;;;;;3.00;3.00;;;;;;;;5084683;28;9168;-68
2021/03/26 11:05:45;;;;;;;;;3.00;1.00;;;;;;;;5083609;28;9335;-71
2021/03/26 11:08:24;;;;;;;;;5.00;2.00;;;;;;;;5082897;28;9076;-70
2021/03/26 11:10:59;;;;;;;;;0.00;0.00;;;;;;;;5084284;28;9137;-69
2021/03/26 11:13:39;;;;;;;;;1.00;1.00;;;;;;;;5082905;28;10615;-69
2021/03/26 11:16:14;;;;;;;;;1.67;1.67;;;;;;;;5082042;28;9031;-69
2021/03/26 11:18:50;;;;;;;;;0.00;0.00;;;;;;;;5083585;28;9012;-69
2021/03/26 11:21:19;;;;;;;;;0.75;0.75;;;;;;;;5083144;28;8883;-71
2021/03/26 11:23:57;;;;;;;;;1.25;1.00;;;;;;;;5083774;28;8844;-70
2021/03/26 11:26:29;;;;;;;;;1.00;1.00;;;;;;;;5083287;28;9838;-71
2021/03/26 11:29:03;;;;;;;;;1.00;1.00;;;;;;;;5084671;28;8818;-72
2021/03/26 11:31:35;;;;;;;;;0.75;0.75;;;;;;;;5088869;28;8844;-70
2021/03/26 11:34:38;;;;;;;;;1.00;1.00;;;;;;;;5087535;28;9666;-69
2021/03/26 11:37:13;;;;;;;;;1.00;1.00;;;;;;;;5079891;28;8913;-69
2021/03/26 11:39:51;;;;;;;;;1.75;1.75;;;;;;;;5082418;28;8917;-69
2021/03/26 11:42:33;;;;;;;;;1.75;1.75;;;;;;;;5083626;28;8871;-69
2021/03/26 11:45:04;;;;;;;;;0.25;0.25;;;;;;;;5079411;28;8875;-71
2021/03/26 11:47:35;;;;;;;;;1.00;1.00;;;;;;;;5082993;28;9040;-69
2021/03/26 11:50:13;;;;;;;;;0.25;0.25;;;;;;;;5082076;28;8832;-69
2021/03/26 11:52:44;;;;;;;;;0.75;0.75;;;;;;;;5082529;28;8892;-69
2021/03/26 11:55:19;;;;;;;;;1.00;1.00;;;;;;;;5080622;28;8921;-70
2021/03/26 11:57:52;;;;;;;;;0.25;0.25;;;;;;;;5083425;28;9621;-69
2021/03/26 12:00:21;;;;;;;;;1.00;1.00;;;;;;;;5082525;28;8875;-69
2021/03/26 12:02:56;;;;;;;;;1.00;1.00;;;;;;;;5083737;28;9177;-72
2021/03/26 12:05:32;;;;;;;;;1.75;1.00;;;;;;;;5083379;28;9034;-69
2021/03/26 12:08:07;;;;;;;;;0.00;0.00;;;;;;;;5080157;28;8999;-70
2021/03/26 12:10:37;;;;;;;;;1.00;1.00;;;;;;;;5078926;28;8905;-70
2021/03/26 12:13:11;;;;;;;;;0.00;0.00;;;;;;;;5082617;28;8868;-69
2021/03/26 12:15:43;;;;;;;;;0.25;0.25;;;;;;;;5080376;28;8860;-68
2021/03/26 12:18:18;;;;;;;;;1.00;1.00;;;;;;;;5082638;28;8887;-69
2021/03/26 12:20:46;;;;;;;;;1.00;1.00;;;;;;;;5082831;28;8855;-68
2021/03/26 12:23:20;;;;;;;;;1.00;1.00;;;;;;;;5081670;28;8864;-70
2021/03/26 12:25:54;;;;;;;;;1.25;1.00;;;;;;;;5083827;28;8880;-70
2021/03/26 12:28:42;;;;;;;;;1.00;1.00;;;;;;;;5081583;28;8943;-71
2021/03/26 12:31:16;;;;;;;;;1.75;1.25;;;;;;;;5075193;28;8794;-70
2021/03/26 12:33:48;;;;;;;;;2.00;1.00;;;;;;;;5078656;28;9626;-70
2021/03/26 12:36:18;;;;;;;;;1.00;1.00;;;;;;;;5072813;28;8898;-71
2021/03/26 12:38:50;;;;;;;;;0.25;0.25;;;;;;;;5073953;28;8889;-71
2021/03/26 12:41:39;;;;;;;;;1.00;1.00;;;;;;;;5080786;28;8853;-69
2021/03/26 12:44:18;;;;;;;;;1.00;1.00;;;;;;;;5082948;28;8884;-69
2021/03/26 12:47:16;;;;;;;;;3.00;1.25;;;;;;;;5082991;28;8870;-69
2021/03/26 12:49:58;;;;;;;;;1.50;1.50;;;;;;;;5073138;28;9031;-71
2021/03/26 12:52:41;;;;;;;;;1.00;1.00;;;;;;;;5082708;28;9246;-69
2021/03/26 12:55:15;;;;;;;;;1.00;1.00;;;;;;;;5080345;28;9601;-69
2021/03/26 12:57:48;;;;;;;;;1.50;1.50;;;;;;;;5077727;28;8856;-70
2021/03/26 13:00:21;;;;;;;;;1.25;1.25;;;;;;;;5090935;27;8878;-71
2021/03/26 13:02:57;;;;;;;;;1.00;1.00;;;;;;;;5087529;28;8871;-70
2021/03/26 13:05:28;;;;;;;;;3.00;1.00;;;;;;;;5084373;28;8990;-69
2021/03/26 13:08:00;;;;;;;;;1.25;1.25;;;;;;;;5083421;28;8871;-70
2021/03/26 13:10:45;;;;;;;;;3.00;1.00;;;;;;;;5081347;28;8862;-69
2021/03/26 13:13:29;;;;;;;;;1.75;1.75;;;;;;;;5086420;28;8914;-70
2021/03/26 13:16:15;;;;;;;;;1.00;1.00;;;;;;;;5079629;28;8875;-69
2021/03/26 13:18:54;;;;;;;;;2.75;2.75;;;;;;;;5077526;28;8844;-69
2021/03/26 13:21:51;;;;;;;;;1.25;1.25;;;;;;;;5082231;28;8902;-70
2021/03/26 13:24:27;;;;;;;;;1.00;1.00;;;;;;;;5081329;28;8864;-68
2021/03/26 13:27:19;;;;;;;;;1.00;1.00;;;;;;;;5085087;28;8849;-69
2021/03/26 13:29:51;;;;;;;;;3.50;2.50;;;;;;;;5079636;28;8814;-70
2021/03/26 13:32:19;;;;;;;;;1.75;1.75;;;;;;;;5083721;27;9614;-70
2021/03/26 13:34:47;;;;;;;;;2.50;1.75;;;;;;;;5083559;28;8848;-69
2021/03/26 13:37:19;;;;;;;;;1.25;1.25;;;;;;;;5082701;28;8856;-72
2021/03/26 13:39:49;;;;;;;;;2.00;2.00;;;;;;;;5084328;28;8911;-69
2021/03/26 13:42:20;;;;;;;;;1.00;1.00;;;;;;;;5082066;28;8878;-68
2021/03/26 13:45:00;;;;;;;;;1.50;1.50;;;;;;;;5082639;28;8879;-68
2021/03/26 13:47:45;;;;;;;;;0.25;0.25;;;;;;;;5087820;28;8924;-69
2021/03/26 13:50:29;;;;;;;;;3.00;1.00;;;;;;;;5081434;28;8852;-71
2021/03/26 13:53:10;;;;;;;;;1.00;1.00;;;;;;;;5084153;28;8852;-67
2021/03/26 13:55:39;;;;;;;;;1.00;1.00;;;;;;;;5080284;28;8860;-67
2021/03/26 13:58:22;;;;;;;;;2.00;1.00;;;;;;;;5081548;28;8872;-68
2021/03/26 14:01:01;;;;;;;;;1.25;1.25;;;;;;;;5083049;28;8801;-67
2021/03/26 14:03:30;;;;;;;;;1.00;1.00;;;;;;;;5070352;28;8879;-67
2021/03/26 14:06:16;;;;;;;;;1.00;1.00;;;;;;;;5082564;28;8848;-68
2021/03/26 14:08:50;;;;;;;;;1.00;1.00;;;;;;;;5080684;28;8871;-67
2021/03/26 14:11:31;;;;;;;;;1.00;1.00;;;;;;;;5085734;28;8963;-67
2021/03/26 14:14:11;;;;;;;;;0.25;0.25;;;;;;;;5087019;28;8966;-68
2021/03/26 14:16:45;;;;;;;;;1.00;1.00;;;;;;;;5086464;28;8860;-71
2021/03/26 14:19:21;;;;;;;;;1.50;0.50;;;;;;;;5086130;28;8880;-70
2021/03/26 14:21:57;;;;;;;;;1.00;1.00;;;;;;;;5085463;28;8864;-70
2021/03/26 14:24:38;;;;;;;;;0.25;0.25;;;;;;;;5083959;28;8896;-68
2021/03/26 14:27:26;;;;;;;;;1.75;1.75;;;;;;;;5085390;28;8964;-71
2021/03/26 14:30:15;;;;;;;;;1.00;1.00;;;;;;;;5084615;28;9007;-68
2021/03/26 14:33:03;;;;;;;;;2.00;0.00;;;;;;;;5085189;28;8801;-67
2021/03/26 14:35:34;;;;;;;;;0.75;0.75;;;;;;;;5085407;28;8868;-70
2021/03/26 14:38:10;;;;;;;;;4.00;2.00;;;;;;;;5083686;28;8945;-71
2021/03/26 14:40:38;;;;;;;;;1.00;1.00;;;;;;;;5084629;28;8987;-69
2021/03/26 14:43:11;;;;;;;;;2.25;1.25;;;;;;;;5083993;28;8864;-70
2021/03/26 14:45:40;;;;;;;;;2.50;1.00;;;;;;;;5085896;28;8887;-69
2021/03/26 14:48:18;;;;;;;;;1.00;1.00;;;;;;;;5084534;28;8872;-68
2021/03/26 14:50:49;;;;;;;;;0.00;0.00;;;;;;;;5084558;28;8876;-68
2021/03/26 14:53:19;;;;;;;;;0.00;0.00;;;;;;;;5076681;28;8876;-69
2021/03/26 14:55:51;;;;;;;;;1.00;1.00;;;;;;;;5080386;28;8970;-69
2021/03/26 14:58:24;;;;;;;;;1.50;1.00;;;;;;;;5084849;28;9002;-70
2021/03/26 15:01:07;;;;;;;;;1.00;1.00;;;;;;;;5078279;28;8911;-72
2021/03/26 15:04:04;;;;;;;;;0.00;0.00;;;;;;;;5077031;28;8868;-70
2021/03/26 15:06:51;;;;;;;;;1.00;1.00;;;;;;;;5078795;28;8872;-71
2021/03/26 15:09:31;;;;;;;;;0.00;0.00;;;;;;;;5082802;28;8923;-70
2021/03/26 15:12:13;;;;;;;;;1.00;1.00;;;;;;;;5087119;28;8892;-71
2021/03/26 15:15:03;;;;;;;;;1.00;1.00;;;;;;;;5080988;28;8851;-70
2021/03/26 15:17:36;;;;;;;;;0.00;0.00;;;;;;;;5081867;28;8864;-68
2021/03/26 15:20:08;;;;;;;;;3.00;1.00;;;;;;;;5084445;28;9618;-69
2021/03/26 15:22:43;;;;;;;;;0.75;0.75;;;;;;;;5083540;28;8860;-69
2021/03/26 15:25:24;;;;;;;;;0.75;0.75;;;;;;;;5083485;28;8863;-70
2021/03/26 15:28:14;;;;;;;;;1.00;1.00;;;;;;;;5084044;28;8947;-69
2021/03/26 15:30:59;;;;;;;;;0.50;0.50;;;;;;;;5075514;28;8801;-68